createdAt,value
2019-02-15T00:02:07.246Z,128.57
2019-02-15T00:04:42.371Z,134.83
2019-02-15T00:07:19.400Z,130.33
2019-02-15T00:09:52.222Z,121.17
2019-02-15T00:12:27.226Z,125.03
2019-02-15T00:15:00.784Z,126.60
2019-02-15T00:17:34.452Z,122.93
2019-02-15T00:20:08.252Z,120.17
2019-02-15T00:22:41.717Z,121.60
2019-02-15T00:25:15.274Z,110.80
2019-02-15T00:27:50.081Z,128.83
2019-02-15T00:30:23.725Z,117.63
2019-02-15T00:32:57.568Z,125.17
2019-02-15T00:35:31.681Z,122.73
2019-02-15T00:38:07.168Z,125.07
2019-02-15T00:40:42.350Z,123.97
2019-02-15T00:43:22.089Z,131.03
2019-02-15T00:45:51.221Z,113.60
2019-02-15T00:48:24.780Z,120.77
2019-02-15T00:50:58.387Z,122.87
2019-02-15T00:53:31.956Z,131.20
2019-02-15T00:56:06.820Z,135.65
2019-02-15T00:58:40.402Z,140.90
2019-02-15T01:01:13.808Z,143.10
2019-02-15T01:03:47.666Z,148.70
2019-02-15T01:06:22.465Z,153.00
2019-02-15T01:08:56.320Z,155.27
2019-02-15T01:11:30.006Z,153.50
2019-02-15T01:14:03.914Z,133.77
2019-02-15T01:16:37.468Z,138.50
2019-02-15T01:19:11.333Z,139.85
2019-02-15T01:21:45.304Z,159.23
2019-02-15T01:24:19.011Z,141.13
2019-02-15T01:26:53.843Z,159.00
2019-02-15T01:29:27.569Z,151.90
2019-02-15T01:32:02.192Z,159.23
2019-02-15T01:34:36.793Z,157.07
2019-02-15T01:37:10.597Z,163.73
2019-02-15T01:39:44.271Z,159.83
2019-02-15T01:42:18.194Z,159.20
2019-02-15T01:44:52.364Z,151.63
2019-02-15T01:47:25.988Z,159.03
2019-02-15T01:49:59.947Z,156.87
2019-02-15T01:52:34.301Z,151.78
2019-02-15T01:55:09.104Z,147.67
2019-02-15T01:57:44.370Z,149.07
2019-02-15T02:00:19.965Z,146.37
2019-02-15T02:02:53.804Z,148.80
2019-02-15T02:05:27.474Z,153.87
2019-02-15T02:08:02.728Z,147.25
2019-02-15T02:10:37.463Z,143.50
2019-02-15T02:13:14.687Z,134.63
2019-02-15T02:15:48.509Z,127.40
2019-02-15T02:18:22.583Z,115.43
2019-02-15T02:20:56.276Z,119.97
2019-02-15T02:23:30.182Z,121.00
2019-02-15T02:26:04.044Z,127.63
2019-02-15T02:28:37.876Z,132.10
2019-02-15T02:31:11.500Z,135.33
2019-02-15T02:33:45.321Z,129.97
2019-02-15T02:36:19.236Z,136.90
2019-02-15T02:38:52.826Z,138.80
2019-02-15T02:41:26.457Z,129.53
2019-02-15T02:44:00.303Z,123.20
2019-02-15T02:46:33.876Z,122.90
2019-02-15T02:49:10.443Z,123.00
2019-02-15T02:51:44.078Z,133.27
2019-02-15T02:54:17.800Z,131.25
2019-02-15T02:56:51.469Z,121.87
2019-02-15T02:59:24.922Z,129.33
2019-02-15T03:01:58.468Z,126.50
2019-02-15T03:04:32.063Z,135.93
2019-02-15T03:07:15.163Z,137.70
2019-02-15T03:15:37.725Z,133.03
2019-02-15T03:18:12.422Z,140.87
2019-02-15T03:20:46.306Z,143.87
2019-02-15T03:23:19.887Z,148.23
2019-02-15T03:25:53.348Z,151.53
2019-02-15T03:28:26.839Z,146.57
2019-02-15T03:31:01.498Z,149.50
2019-02-15T03:33:37.799Z,140.93
2019-02-15T03:36:13.447Z,134.85
2019-02-15T03:38:48.694Z,129.85
2019-02-15T03:41:25.224Z,144.57
2019-02-15T03:44:01.475Z,139.07
2019-02-15T03:46:37.017Z,150.63
2019-02-15T03:49:12.855Z,126.95
2019-02-15T03:51:47.800Z,132.13
2019-02-15T03:54:22.470Z,143.63
2019-02-15T03:56:57.614Z,126.03
2019-02-15T03:59:32.168Z,118.33
2019-02-15T04:02:06.052Z,129.83
2019-02-15T04:04:41.454Z,138.77
2019-02-15T04:07:15.828Z,136.23
2019-02-15T04:09:49.699Z,132.47
2019-02-15T04:12:28.008Z,119.77
2019-02-15T04:15:06.801Z,110.30
2019-02-15T04:17:41.575Z,117.10
2019-02-15T04:20:16.799Z,123.60
2019-02-15T04:22:50.767Z,114.33
2019-02-15T04:25:34.240Z,109.70
2019-02-15T04:28:10.296Z,112.83
2019-02-15T04:30:44.629Z,106.27
2019-02-15T04:33:21.315Z,106.97
2019-02-15T04:35:57.309Z,119.30
2019-02-15T04:38:33.929Z,110.03
2019-02-15T04:41:10.962Z,101.58
2019-02-15T04:43:45.534Z,96.50
2019-02-15T04:46:20.962Z,98.17
2019-02-15T04:49:02.225Z,103.92
2019-02-15T04:51:34.951Z,94.30
2019-02-15T04:54:13.543Z,91.20
2019-02-15T04:56:49.240Z,90.87
2019-02-15T04:59:25.327Z,93.00
2019-02-15T05:01:59.717Z,89.77
2019-02-15T05:04:35.725Z,104.70
2019-02-15T05:07:10.228Z,96.30
2019-02-15T05:09:46.533Z,94.90
2019-02-15T05:12:20.999Z,101.40
2019-02-15T05:14:56.218Z,88.80
2019-02-15T05:17:30.467Z,96.30
2019-02-15T05:20:04.909Z,98.23
2019-02-15T05:22:39.459Z,85.30
2019-02-15T05:25:14.064Z,76.72
2019-02-15T05:27:48.627Z,74.13
2019-02-15T05:30:22.950Z,81.57
2019-02-15T05:32:57.235Z,89.87
2019-02-15T05:35:31.808Z,94.45
2019-02-15T05:38:07.366Z,88.03
2019-02-15T05:40:41.967Z,75.73
2019-02-15T05:43:16.336Z,87.77
2019-02-15T05:45:50.776Z,91.83
2019-02-15T05:48:28.118Z,93.60
2019-02-15T05:51:02.595Z,90.77
2019-02-15T05:53:36.965Z,98.73
2019-02-15T05:56:11.340Z,97.00
2019-02-15T05:58:47.201Z,97.13
2019-02-15T06:01:21.613Z,91.03
2019-02-15T06:03:55.696Z,87.03
2019-02-15T06:06:30.140Z,89.13
2019-02-15T06:09:04.482Z,87.17
2019-02-15T06:11:38.948Z,96.83
2019-02-15T06:14:13.533Z,103.03
2019-02-15T06:16:47.837Z,93.23
2019-02-15T06:19:25.018Z,113.10
2019-02-15T06:22:01.048Z,110.87
2019-02-15T06:24:35.486Z,99.93
2019-02-15T06:27:11.943Z,105.50
2019-02-15T06:29:46.286Z,96.13
2019-02-15T06:32:20.762Z,98.70
2019-02-15T06:34:55.024Z,102.67
2019-02-15T06:37:29.743Z,113.37
2019-02-15T06:40:04.206Z,104.67
2019-02-15T06:42:38.597Z,89.60
2019-02-15T06:45:13.014Z,98.10
2019-02-15T06:47:47.417Z,99.33
2019-02-15T06:50:21.875Z,92.23
2019-02-15T06:52:55.963Z,91.83
2019-02-15T06:55:30.500Z,87.88
2019-02-15T06:58:05.025Z,89.57
2019-02-15T07:00:39.495Z,97.22
2019-02-15T07:03:14.042Z,113.57
2019-02-15T07:05:48.751Z,101.33
2019-02-15T07:08:22.990Z,95.90
2019-02-15T07:10:57.296Z,105.20
2019-02-15T07:13:31.633Z,96.77
2019-02-15T07:16:07.900Z,100.23
2019-02-15T07:18:44.052Z,111.37
2019-02-15T07:21:20.007Z,103.83
2019-02-15T07:23:54.772Z,105.70
2019-02-15T07:26:35.587Z,112.57
2019-02-15T07:29:51.386Z,128.57
2019-02-15T07:32:26.521Z,124.70
2019-02-15T07:35:02.575Z,120.17
2019-02-15T07:37:37.400Z,123.83
2019-02-15T07:40:13.536Z,123.60
2019-02-15T07:42:50.716Z,131.60
2019-02-15T07:45:25.494Z,125.13
2019-02-15T07:48:03.490Z,124.22
2019-02-15T07:50:38.102Z,130.73
2019-02-15T07:53:13.150Z,128.20
2019-02-15T07:55:47.984Z,130.97
2019-02-15T07:58:22.939Z,130.87
2019-02-15T08:00:58.647Z,132.53
2019-02-15T08:03:35.315Z,143.90
2019-02-15T08:06:10.650Z,136.73
2019-02-15T08:08:45.456Z,134.43
2019-02-15T08:11:20.765Z,132.55
2019-02-15T08:13:55.865Z,134.85
2019-02-15T08:16:31.529Z,145.45
2019-02-15T08:19:06.686Z,137.93
2019-02-15T08:21:41.819Z,134.47
2019-02-15T08:24:16.572Z,135.47
2019-02-15T08:26:51.477Z,121.73
2019-02-15T08:29:25.886Z,130.93
2019-02-15T08:32:00.750Z,118.97
2019-02-15T08:34:35.554Z,117.67
2019-02-15T08:37:11.310Z,116.07
2019-02-15T08:39:46.033Z,122.00
2019-02-15T08:42:20.449Z,123.67
2019-02-15T08:44:55.229Z,119.00
2019-02-15T08:47:29.816Z,128.73
2019-02-15T08:50:04.337Z,131.80
2019-02-15T08:52:40.483Z,119.63
2019-02-15T08:55:15.581Z,118.90
2019-02-15T08:57:50.353Z,119.22
2019-02-15T09:00:25.245Z,129.53
2019-02-15T09:03:00.029Z,122.97
2019-02-15T09:05:35.696Z,133.70
2019-02-15T09:08:11.168Z,133.57
2019-02-15T09:10:46.722Z,150.37
2019-02-15T09:13:22.357Z,142.40
2019-02-15T09:15:58.805Z,130.10
2019-02-15T09:18:37.292Z,152.07
2019-02-15T09:21:12.273Z,143.37
2019-02-15T09:23:49.315Z,166.27
2019-02-15T09:26:25.627Z,164.43
2019-02-15T09:29:02.570Z,152.30
2019-02-15T09:31:41.348Z,172.30
2019-02-15T09:34:16.365Z,173.40
2019-02-15T09:36:53.945Z,184.13
2019-02-15T09:39:28.793Z,185.43
2019-02-15T09:42:03.263Z,190.53
2019-02-15T09:44:38.184Z,194.02
2019-02-15T09:47:14.648Z,198.47
2019-02-15T09:49:50.489Z,188.25
2019-02-15T09:52:29.739Z,203.50
2019-02-15T09:55:06.132Z,201.33
2019-02-15T09:57:42.568Z,195.77
2019-02-15T10:00:20.793Z,203.23
2019-02-15T10:02:57.723Z,206.53
2019-02-15T10:05:35.288Z,198.20
2019-02-15T10:08:10.949Z,197.30
2019-02-15T10:10:46.075Z,199.40
2019-02-15T10:13:22.518Z,194.80
2019-02-15T10:15:59.902Z,180.47
2019-02-15T10:18:35.229Z,189.43
2019-02-15T10:21:11.126Z,181.60
2019-02-15T10:32:34.242Z,195.83
2019-02-15T10:35:21.369Z,182.73
2019-02-15T10:37:56.245Z,175.97
2019-02-15T10:40:31.253Z,192.60
2019-02-15T10:43:06.849Z,185.87
2019-02-15T10:45:42.406Z,195.97
2019-02-15T10:48:18.582Z,190.53
2019-02-15T10:50:53.628Z,193.03
2019-02-15T10:53:32.142Z,195.40
2019-02-15T10:56:07.333Z,195.22
2019-02-15T10:58:42.925Z,201.25
2019-02-15T11:01:18.204Z,198.00
2019-02-15T11:03:54.640Z,200.83
2019-02-15T11:06:29.848Z,192.30
2019-02-15T11:09:05.862Z,210.77
2019-02-15T11:11:41.682Z,202.33
2019-02-15T11:14:18.885Z,199.83
2019-02-15T11:16:58.033Z,201.52
2019-02-15T11:19:32.781Z,218.40
2019-02-15T11:22:07.931Z,209.23
2019-02-15T11:24:47.341Z,202.37
2019-02-15T11:27:23.099Z,203.03
2019-02-15T11:29:58.509Z,200.50
2019-02-15T11:32:34.294Z,231.30
2019-02-15T11:35:11.576Z,207.22
2019-02-15T11:37:49.381Z,200.40
2019-02-15T11:40:26.697Z,210.37
2019-02-15T11:43:04.208Z,214.67
2019-02-15T11:45:39.451Z,222.03
2019-02-15T11:48:15.372Z,226.00
2019-02-15T11:50:50.687Z,220.30
2019-02-15T11:53:26.309Z,212.80
2019-02-15T11:56:01.991Z,211.13
2019-02-15T11:58:37.958Z,203.53
2019-02-15T12:01:13.524Z,221.60
2019-02-15T12:03:49.555Z,203.23
2019-02-15T12:06:24.809Z,227.10
2019-02-15T12:09:00.712Z,215.53
2019-02-15T12:11:35.822Z,211.97
2019-02-15T12:14:13.190Z,211.93
2019-02-15T12:16:49.172Z,203.43
2019-02-15T12:19:25.015Z,221.27
2019-02-15T12:22:02.523Z,227.60
2019-02-15T12:24:40.263Z,226.98
2019-02-15T12:27:19.055Z,211.73
2019-02-15T12:29:56.081Z,206.90
2019-02-15T12:32:31.531Z,225.33
2019-02-15T12:35:16.501Z,218.60
2019-02-15T12:37:54.583Z,217.97
2019-02-15T12:40:30.499Z,211.63
2019-02-15T12:43:10.299Z,216.90
2019-02-15T12:45:46.314Z,214.13
2019-02-15T12:48:21.551Z,194.60
2019-02-15T12:51:02.511Z,198.67
2019-02-15T12:53:37.935Z,189.77
2019-02-15T12:56:15.303Z,182.43
2019-02-15T12:58:50.834Z,171.37
2019-02-15T13:01:28.837Z,163.20
2019-02-15T13:04:05.273Z,170.65
2019-02-15T13:06:43.134Z,168.17
2019-02-15T13:09:21.274Z,151.73
2019-02-15T13:11:58.306Z,155.70
2019-02-15T13:14:36.211Z,161.47
2019-02-15T13:17:14.172Z,159.73
2019-02-15T13:19:47.428Z,157.05
2019-02-15T13:22:22.360Z,146.50
2019-02-15T13:24:57.763Z,133.37
2019-02-15T13:27:35.263Z,138.83
2019-02-15T13:30:12.916Z,143.10
2019-02-15T13:32:48.751Z,133.43
2019-02-15T13:35:30.150Z,142.13
2019-02-15T13:38:06.525Z,142.17
2019-02-15T13:40:42.314Z,129.40
2019-02-15T13:43:24.835Z,124.80
2019-02-15T13:46:01.137Z,127.80
2019-02-15T13:48:36.747Z,133.23
2019-02-15T13:51:22.234Z,128.85
2019-02-15T13:53:58.463Z,130.95
2019-02-15T13:56:35.618Z,145.20
2019-02-15T13:59:11.630Z,137.90
2019-02-15T14:01:48.083Z,126.38
2019-02-15T14:04:26.491Z,130.67
2019-02-15T14:07:04.727Z,133.57
2019-02-15T14:09:40.240Z,140.80
2019-02-15T14:12:19.328Z,119.47
2019-02-15T14:17:48.709Z,123.43
2019-02-15T14:26:10.911Z,138.60
2019-02-15T14:28:47.570Z,117.77
2019-02-15T14:31:22.765Z,120.93
2019-02-15T14:34:00.480Z,132.17
2019-02-15T14:36:37.673Z,119.27
2019-02-15T14:39:16.784Z,141.80
2019-02-15T14:41:56.031Z,119.37
2019-02-15T14:44:28.715Z,119.17
2019-02-15T14:47:05.274Z,116.13
2019-02-15T14:49:39.901Z,122.30
2019-02-15T14:52:16.747Z,124.57
2019-02-15T14:54:51.642Z,122.23
2019-02-15T14:57:26.172Z,124.93
2019-02-15T15:00:02.724Z,116.87
2019-02-15T15:02:37.784Z,113.12
2019-02-15T15:05:13.967Z,115.13
2019-02-15T15:07:48.568Z,123.87
2019-02-15T15:10:25.953Z,124.17
2019-02-15T15:12:58.640Z,131.73
2019-02-15T15:15:33.850Z,123.33
2019-02-15T15:18:15.062Z,126.90
2019-02-15T15:20:52.463Z,128.33
2019-02-15T15:23:25.183Z,140.50
2019-02-15T15:25:59.644Z,131.83
2019-02-15T15:28:33.999Z,127.27
2019-02-15T15:31:11.254Z,158.80
2019-02-15T15:33:47.297Z,154.60
2019-02-15T15:36:21.947Z,147.43
2019-02-15T15:39:03.204Z,184.32
2019-02-15T15:41:39.390Z,182.43
2019-02-15T15:44:14.528Z,194.37
2019-02-15T15:46:48.748Z,180.82
2019-02-15T15:49:28.464Z,209.25
2019-02-15T15:52:02.782Z,204.10
2019-02-15T15:54:37.151Z,236.97
2019-02-15T15:57:11.363Z,244.43
2019-02-15T15:59:45.652Z,223.63
2019-02-15T16:02:20.078Z,244.87
2019-02-15T16:04:54.385Z,229.60
2019-02-15T16:07:30.443Z,241.43
2019-02-15T16:10:04.671Z,249.40
2019-02-15T16:12:39.198Z,242.03
2019-02-15T16:15:17.410Z,279.30
2019-02-15T16:17:51.464Z,275.60
2019-02-15T16:20:25.826Z,264.75
2019-02-15T16:23:02.845Z,287.43
2019-02-15T16:25:37.505Z,272.90
2019-02-15T16:28:12.052Z,276.33
2019-02-15T16:30:46.234Z,272.93
2019-02-15T16:33:20.729Z,281.17
2019-02-15T16:36:00.642Z,268.80
2019-02-15T16:38:33.681Z,284.20
2019-02-15T16:41:15.678Z,284.40
2019-02-15T16:43:47.081Z,283.00
2019-02-15T16:46:24.040Z,276.20
2019-02-15T16:48:58.422Z,291.55
2019-02-15T16:51:35.117Z,295.50
2019-02-15T16:54:07.941Z,283.27
2019-02-15T16:56:48.142Z,268.03
2019-02-15T16:59:25.896Z,270.83
2019-02-15T17:02:00.122Z,285.27
2019-02-15T17:04:34.696Z,254.27
2019-02-15T17:07:18.349Z,287.07
2019-02-15T17:09:50.663Z,263.40
2019-02-15T17:12:25.137Z,291.17
2019-02-15T17:14:59.676Z,281.70
2019-02-15T17:17:35.925Z,301.70
2019-02-15T17:20:11.877Z,275.23
2019-02-15T17:22:46.209Z,277.18
2019-02-15T17:25:20.914Z,273.00
2019-02-15T17:27:55.207Z,258.35
2019-02-15T17:30:29.541Z,254.40
2019-02-15T17:33:03.846Z,253.10
2019-02-15T17:35:38.229Z,242.77
2019-02-15T17:38:43.751Z,235.30
2019-02-15T17:41:02.541Z,242.28
2019-02-15T17:43:37.344Z,230.93
2019-02-15T17:46:15.670Z,219.40
2019-02-15T17:49:00.342Z,216.10
2019-02-15T17:51:27.356Z,227.90
2019-02-15T17:54:01.707Z,214.33
2019-02-15T17:56:36.223Z,230.00
2019-02-15T17:59:13.175Z,231.53
2019-02-15T18:01:51.156Z,248.20
2019-02-15T18:04:28.000Z,219.85
2019-02-15T18:07:07.554Z,228.03
2019-02-15T18:09:44.765Z,254.23
2019-02-15T18:12:19.363Z,225.23
2019-02-15T18:14:57.895Z,224.02
2019-02-15T18:17:33.380Z,215.57
2019-02-15T18:20:08.451Z,217.77
2019-02-15T18:22:42.801Z,200.30
2019-02-15T18:25:17.145Z,185.05
2019-02-15T18:27:51.748Z,196.83
2019-02-15T18:30:29.106Z,208.53
2019-02-15T18:33:01.623Z,192.80
2019-02-15T18:35:35.933Z,183.63
2019-02-15T18:38:10.286Z,166.83
2019-02-15T18:40:44.695Z,171.17
2019-02-15T18:43:19.116Z,189.83
2019-02-15T18:45:56.015Z,181.30
2019-02-15T18:48:31.032Z,184.13
2019-02-15T18:51:10.938Z,191.87
2019-02-15T18:53:48.070Z,187.70
2019-02-15T18:56:22.725Z,176.57
2019-02-15T18:58:57.083Z,184.33
2019-02-15T19:01:34.702Z,180.50
2019-02-15T19:04:09.292Z,178.33
2019-02-15T19:06:43.598Z,178.67
2019-02-15T19:09:20.504Z,177.70
2019-02-15T19:11:53.583Z,167.93
2019-02-15T19:14:27.986Z,174.53
2019-02-15T19:17:02.263Z,187.90
2019-02-15T19:19:40.208Z,166.80
2019-02-15T19:22:12.061Z,155.47
2019-02-15T19:24:46.181Z,166.60
2019-02-15T19:27:20.312Z,178.70
2019-02-15T19:29:54.815Z,160.55
2019-02-15T19:32:32.126Z,167.77
2019-02-15T19:35:07.323Z,159.63
2019-02-15T19:37:39.575Z,140.03
2019-02-15T19:40:16.876Z,144.03
2019-02-15T19:42:52.755Z,142.40
2019-02-15T19:45:29.419Z,146.33
2019-02-15T19:48:03.701Z,143.33
2019-02-15T19:50:38.076Z,150.13
2019-02-15T19:53:12.431Z,136.87
2019-02-15T19:55:48.756Z,129.07
2019-02-15T19:58:22.258Z,136.55
2019-02-15T20:00:57.510Z,135.87
2019-02-15T20:03:33.145Z,130.20
2019-02-15T20:06:07.889Z,129.47
2019-02-15T20:08:42.353Z,120.23
2019-02-15T20:11:16.769Z,123.93
2019-02-15T20:13:53.387Z,114.00
2019-02-15T20:16:28.175Z,116.27
2019-02-15T20:19:02.534Z,118.03
2019-02-15T20:21:36.875Z,114.93
2019-02-15T20:24:11.089Z,120.60
2019-02-15T20:26:45.579Z,124.10
2019-02-15T20:29:23.291Z,110.53
2019-02-15T20:31:57.722Z,125.33
2019-02-15T20:34:34.572Z,121.77
2019-02-15T20:37:09.383Z,109.63
2019-02-15T20:39:44.445Z,111.57
2019-02-15T20:42:18.655Z,114.90
2019-02-15T20:44:56.769Z,108.60
2019-02-15T20:47:31.596Z,111.60
2019-02-15T20:50:05.871Z,104.67
2019-02-15T20:52:43.919Z,107.97
2019-02-15T20:55:20.076Z,111.37
2019-02-15T20:57:59.824Z,105.93
2019-02-15T21:00:32.956Z,112.93
2019-02-15T21:03:07.540Z,112.60
2019-02-15T21:05:41.905Z,94.73
2019-02-15T21:08:18.758Z,101.80
2019-02-15T21:10:55.438Z,103.40
2019-02-15T21:13:28.405Z,108.63
2019-02-15T21:16:02.759Z,99.53
2019-02-15T21:18:43.145Z,105.63
2019-02-15T21:21:17.259Z,100.43
2019-02-15T21:23:51.538Z,101.67
2019-02-15T21:26:25.805Z,104.73
2019-02-15T21:29:00.366Z,97.60
2019-02-15T21:31:36.374Z,111.13
2019-02-15T21:34:10.818Z,102.17
2019-02-15T21:36:45.042Z,106.17
2019-02-15T21:39:19.153Z,101.27
2019-02-15T21:41:55.045Z,108.73
2019-02-15T21:44:29.466Z,89.20
2019-02-15T21:47:05.930Z,111.60
2019-02-15T21:49:40.184Z,101.57
2019-02-15T21:52:14.439Z,101.57
2019-02-15T21:54:48.502Z,103.38
2019-02-15T21:57:22.595Z,96.97
2019-02-15T21:59:56.951Z,112.10
2019-02-15T22:02:31.933Z,98.23
2019-02-15T22:05:06.815Z,96.85
2019-02-15T22:07:45.853Z,91.20
2019-02-15T22:10:21.093Z,101.33
2019-02-15T22:12:57.525Z,90.80
2019-02-15T22:15:32.925Z,79.90
2019-02-15T22:18:09.489Z,95.20
2019-02-15T22:20:44.000Z,88.13
2019-02-15T22:23:18.216Z,90.30
2019-02-15T22:26:02.830Z,86.10
2019-02-15T22:28:37.046Z,77.40
2019-02-15T22:31:13.047Z,85.90
2019-02-15T22:33:48.866Z,83.83
2019-02-15T22:36:23.562Z,84.97
2019-02-15T22:38:57.758Z,83.40
2019-02-15T22:41:32.749Z,86.60
2019-02-15T22:44:06.804Z,82.03
2019-02-15T22:46:40.702Z,86.50
2019-02-15T22:49:14.448Z,100.80
2019-02-15T22:51:48.467Z,90.83
2019-02-15T22:54:23.664Z,89.27
2019-02-15T22:56:57.751Z,96.37
2019-02-15T22:59:33.342Z,93.53
2019-02-15T23:02:07.289Z,92.90
2019-02-15T23:04:40.613Z,93.00
2019-02-15T23:07:14.789Z,89.20
2019-02-15T23:09:48.707Z,88.53
2019-02-15T23:12:23.606Z,89.50
2019-02-15T23:14:57.268Z,87.73
2019-02-15T23:17:31.198Z,92.33
2019-02-15T23:20:05.680Z,88.03
2019-02-15T23:22:39.419Z,90.33
2019-02-15T23:25:13.301Z,83.50
2019-02-15T23:27:47.082Z,93.53
2019-02-15T23:30:20.601Z,91.32
2019-02-15T23:32:54.634Z,94.13
2019-02-15T23:35:28.312Z,104.97
2019-02-15T23:38:02.490Z,99.17
2019-02-15T23:40:36.846Z,94.50
2019-02-15T23:43:10.870Z,98.53
2019-02-15T23:45:45.033Z,93.67
2019-02-15T23:48:19.446Z,103.93
2019-02-15T23:50:55.211Z,111.03
2019-02-15T23:53:27.883Z,105.37
2019-02-15T23:56:02.310Z,103.07
2019-02-15T23:58:38.754Z,105.97
